WetterOnline ( https://www.wetteronline.de )

Wetter aktuell Monterosso Stazione

Aktuelles Wetter: Frontone (574m)

6-stündlich | Neueste Meldungen
Ortszeit Temperatur Wetter
Sa, 24.08. 8:00 21.0° C leicht bewölkt
Sa, 24.08. 2:00 21.0° C leicht bewölkt
Fr, 23.08. 20:00 21.2° C leicht bewölkt
Fr, 23.08. 14:00 21.6° C wolkig
Fr, 23.08. 8:00 19.4° C Gewitter
Fr, 23.08. 2:00 20.0° C leicht bewölkt
Do, 22.08. 20:00 23.0° C leichte Gewitter
Do, 22.08. 14:00 25.4° C wolkig
Ortszeit Temperatur Wetter
Sa, 24.08. 13:00 26.0° C leicht bewölkt
Sa, 24.08. 12:55 26° C leicht bewölkt
Sa, 24.08. 12:00 25.2° C leicht bewölkt
Sa, 24.08. 11:55 25° C leicht bewölkt
Sa, 24.08. 11:00 24.8° C leicht bewölkt
Sa, 24.08. 10:55 25° C leicht bewölkt
Sa, 24.08. 10:00 23.6° C wolkig
Sa, 24.08. 9:55 24° C leicht bewölkt
Sa, 24.08. 9:00 22.2° C leicht bewölkt
Ortszeit Relative Feuchte Sichtweite
Sa, 24.08. 8:00 64% 20 km
Sa, 24.08. 2:00 82% 20 km
Fr, 23.08. 20:00 87% 20 km
Fr, 23.08. 14:00 78% 20 km
Fr, 23.08. 8:00 94% 15 km
Fr, 23.08. 2:00 91% 20 km
Do, 22.08. 20:00 68% 15 km
Do, 22.08. 14:00 63% 18 km
Ortszeit Relative Feuchte Sichtweite
Sa, 24.08. 13:00 45% 35 km
Sa, 24.08. 12:55 45% >10 km
Sa, 24.08. 12:00 48% 35 km
Sa, 24.08. 11:55 51% >10 km
Sa, 24.08. 11:00 52% 30 km
Sa, 24.08. 10:55 51% >10 km
Sa, 24.08. 10:00 60% 30 km
Sa, 24.08. 9:55 57% >10 km
Sa, 24.08. 9:00 64% 25 km
Ortszeit Niederschlagsmenge Niederschlagsart
Sa, 24.08. 8:00 0.0 l/m2 in 12 Std. -
Sa, 24.08. 2:00 0.0 l/m2 in 6 Std. -
Fr, 23.08. 20:00 0.2 l/m2 in 12 Std. -
Fr, 23.08. 14:00 0.2 l/m2 in 6 Std. Gewitter, Regen
Fr, 23.08. 8:00 1 l/m2 in 12 Std. Gewitter
Fr, 23.08. 2:00 0.0 l/m2 in 6 Std. Gewitter
Do, 22.08. 20:00 0.0 l/m2 in 12 Std. Gewitter
Do, 22.08. 14:00 0.0 l/m2 in 6 Std. -
Ortszeit Niederschlagsmenge Niederschlagsart
Sa, 24.08. 13:00 keine Meldung -
Sa, 24.08. 12:55 keine Meldung -
Sa, 24.08. 12:00 keine Meldung -
Sa, 24.08. 11:55 keine Meldung -
Sa, 24.08. 11:00 keine Meldung -
Sa, 24.08. 10:55 keine Meldung -
Sa, 24.08. 10:00 keine Meldung -
Sa, 24.08. 9:55 keine Meldung -
Sa, 24.08. 9:00 keine Meldung -
Ortszeit Stärke Spitze Richtung
km/h Bft. km/h Grad Sektor
Sa, 24.08. 8:00 9 2 - 240° SW
Sa, 24.08. 2:00 9 2 - 250° W
Fr, 23.08. 20:00 9 2 - 150° SO
Fr, 23.08. 14:00 9 2 - 90° O
Fr, 23.08. 8:00 6 1 - 60° NO
Fr, 23.08. 2:00 11 2 - 240° SW
Do, 22.08. 20:00 7 2 - 270° W
Do, 22.08. 14:00 7 2 - 110° O
Ortszeit Stärke Spitze Richtung
km/h Bft. km/h Grad Sektor
Sa, 24.08. 13:00 7 2 - 360° N
Sa, 24.08. 12:55 7 2 - 360° N
Sa, 24.08. 12:00 9 2 - 10° N
Sa, 24.08. 11:55 9 2 - 10° N
Sa, 24.08. 11:00 7 2 - 300° NW
Sa, 24.08. 10:55 7 2 - 300° NW
Sa, 24.08. 10:00 11 2 - 280° W
Sa, 24.08. 9:55 11 2 - 280° W
Sa, 24.08. 9:00 9 2 - 310° NW
Ortszeit Untergrenze Bedeckung Gattung
total tief tief mittel hoch
Sa, 24.08. 8:00 900 m 4/8 1/8 Cu Ns -
Sa, 24.08. 2:00 1200 m 4/8 4/8 Sc - -
Fr, 23.08. 20:00 1500 m 4/8 4/8 - Ns -
Fr, 23.08. 14:00 750 m 7/8 7/8 Cu - -
Fr, 23.08. 8:00 900 m 8/8 7/8 Cb Ac -
Fr, 23.08. 2:00 2400 m 3/8 3/8 - Ac -
Do, 22.08. 20:00 2400 m 8/8 7/8 Cb Ac -
Do, 22.08. 14:00 450 m 7/8 7/8 Cu - -
Ortszeit Bedeckungsgrad in Achtel und Wolkenuntergrenze
Sa, 24.08. 13:00 2(1050m)
Sa, 24.08. 12:55 1-2(1050m)
Sa, 24.08. 12:00 1(1050m)
Sa, 24.08. 11:55 1-2(1050m)
Sa, 24.08. 11:00 1(1080m)
Sa, 24.08. 10:55 1-2(1080m)
Sa, 24.08. 10:00 1(1050m) 3(2100m)
Sa, 24.08. 9:55 1-2(1050m)
Sa, 24.08. 9:00 1(1800m)
Ortszeit Stationsdruck (hPa) Tendenz (hPa in 3 Std.)
Sa, 24.08. 8:00 953 + 1,0
Sa, 24.08. 2:00 953 0,0
Fr, 23.08. 20:00 953 + 0,2
Fr, 23.08. 14:00 954 + 0,2
Fr, 23.08. 8:00 953 0,0
Fr, 23.08. 2:00 953 0,0
Do, 22.08. 20:00 953 0,0
Do, 22.08. 14:00 953 + 0,1
Ortszeit Stationsdruck (hPa) Tendenz (hPa in 3 Std.)
Sa, 24.08. 13:00 953 - 0,1
Sa, 24.08. 12:55 - keine Meldung
Sa, 24.08. 12:00 953 + 0,3
Sa, 24.08. 11:55 - keine Meldung
Sa, 24.08. 11:00 953 + 0,2
Sa, 24.08. 10:55 - keine Meldung
Sa, 24.08. 10:00 953 - 0,1
Sa, 24.08. 9:55 - keine Meldung
Sa, 24.08. 9:00 953 - 0,3
Ortszeit Schneehöhe (cm)
Sa, 24.08. 8:00 -
Sa, 24.08. 2:00 -
Fr, 23.08. 20:00 -
Fr, 23.08. 14:00 -
Fr, 23.08. 8:00 0
Fr, 23.08. 2:00 -
Do, 22.08. 20:00 -
Do, 22.08. 14:00 -
Ortszeit Schneehöhe (cm)
Sa, 24.08. 13:00 -
Sa, 24.08. 12:55 -
Sa, 24.08. 12:00 -
Sa, 24.08. 11:55 -
Sa, 24.08. 11:00 -
Sa, 24.08. 10:55 -
Sa, 24.08. 10:00 -
Sa, 24.08. 9:55 -
Sa, 24.08. 9:00 -
Link zu dieser Seite / Seite empfehlen

Das Wetter in ...